createdAt,value
2018-05-27T00:00:06.467Z,20.42
2018-05-27T00:01:06.448Z,20.37
2018-05-27T00:02:07.431Z,20.41
2018-05-27T00:03:06.406Z,20.34
2018-05-27T00:04:06.411Z,20.33
2018-05-27T00:05:06.362Z,20.33
2018-05-27T00:06:06.388Z,20.37
2018-05-27T00:07:06.328Z,20.34
2018-05-27T00:08:07.305Z,20.35
2018-05-27T00:09:06.291Z,20.35
2018-05-27T00:10:06.314Z,20.34
2018-05-27T00:11:06.243Z,20.27
2018-05-27T00:12:06.231Z,20.26
2018-05-27T00:13:06.216Z,20.23
2018-05-27T00:14:06.204Z,20.30
2018-05-27T00:15:06.174Z,20.20
2018-05-27T00:16:06.152Z,20.15
2018-05-27T00:17:06.124Z,20.17
2018-05-27T00:18:06.111Z,20.13
2018-05-27T00:19:06.100Z,20.12
2018-05-27T00:20:06.082Z,20.16
2018-05-27T00:21:06.040Z,20.13
2018-05-27T00:22:06.048Z,20.17
2018-05-27T00:23:06.032Z,20.13
2018-05-27T00:24:05.997Z,20.15
2018-05-27T00:25:05.966Z,20.17
2018-05-27T00:26:05.951Z,20.16
2018-05-27T00:27:05.921Z,20.15
2018-05-27T00:28:05.928Z,20.08
2018-05-27T00:29:05.871Z,20.12
2018-05-27T00:30:05.887Z,20.08
2018-05-27T00:31:05.843Z,20.07
2018-05-27T00:32:05.828Z,20.10
2018-05-27T00:33:05.821Z,20.04
2018-05-27T00:34:05.806Z,20.02
2018-05-27T00:35:05.767Z,20.00
2018-05-27T00:36:05.764Z,20.01
2018-05-27T00:37:05.745Z,19.98
2018-05-27T00:38:05.717Z,19.97
2018-05-27T00:39:05.699Z,20.04
2018-05-27T00:40:05.688Z,20.04
2018-05-27T00:41:05.667Z,19.98
2018-05-27T00:42:05.652Z,19.95
2018-05-27T00:43:05.623Z,20.01
2018-05-27T00:44:05.609Z,19.95
2018-05-27T00:45:05.604Z,19.89
2018-05-27T00:46:05.555Z,19.86
2018-05-27T00:47:05.532Z,19.90
2018-05-27T00:48:05.522Z,19.89
2018-05-27T00:49:05.502Z,19.90
2018-05-27T00:50:05.485Z,19.86
2018-05-27T00:51:05.448Z,19.79
2018-05-27T00:52:05.455Z,19.85
2018-05-27T00:53:05.421Z,19.78
2018-05-27T00:54:05.398Z,19.78
2018-05-27T00:55:05.389Z,19.78
2018-05-27T00:56:05.366Z,19.83
2018-05-27T00:57:05.336Z,19.76
2018-05-27T00:58:05.330Z,19.78
2018-05-27T00:59:05.311Z,19.71
2018-05-27T01:00:05.269Z,19.64
2018-05-27T01:01:05.263Z,19.71
2018-05-27T01:02:05.306Z,19.67
2018-05-27T01:03:05.250Z,19.75
2018-05-27T01:04:05.193Z,19.68
2018-05-27T01:05:05.180Z,19.64
2018-05-27T01:06:05.169Z,19.68
2018-05-27T01:07:05.139Z,19.62
2018-05-27T01:08:05.130Z,19.67
2018-05-27T01:09:05.092Z,19.67
2018-05-27T01:10:05.081Z,19.64
2018-05-27T01:11:05.055Z,19.64
2018-05-27T01:12:05.053Z,19.60
2018-05-27T01:13:05.018Z,19.64
2018-05-27T01:14:04.997Z,19.62
2018-05-27T01:15:04.981Z,19.58
2018-05-27T01:16:04.999Z,19.60
2018-05-27T01:17:04.941Z,19.61
2018-05-27T01:18:04.929Z,19.62
2018-05-27T01:19:04.889Z,19.53
2018-05-27T01:20:04.885Z,19.61
2018-05-27T01:21:04.867Z,19.58
2018-05-27T01:22:04.847Z,19.65
2018-05-27T01:23:04.813Z,19.50
2018-05-27T01:24:05.802Z,19.46
2018-05-27T01:25:04.775Z,19.52
2018-05-27T01:26:04.781Z,19.55
2018-05-27T01:27:04.733Z,19.49
2018-05-27T01:28:05.730Z,19.46
2018-05-27T01:29:04.710Z,19.46
2018-05-27T01:30:04.681Z,19.45
2018-05-27T01:31:04.651Z,19.42
2018-05-27T01:32:04.643Z,19.35
2018-05-27T01:33:04.621Z,19.42
2018-05-27T01:34:04.614Z,19.46
2018-05-27T01:35:04.602Z,19.40
2018-05-27T01:36:04.587Z,19.34
2018-05-27T01:37:04.532Z,19.35
2018-05-27T01:38:04.511Z,19.23
2018-05-27T01:39:04.508Z,19.31
2018-05-27T01:40:04.535Z,19.25
2018-05-27T01:41:04.456Z,19.30
2018-05-27T01:42:04.453Z,19.24
2018-05-27T01:43:04.411Z,19.23
2018-05-27T01:44:04.394Z,19.20
2018-05-27T01:45:04.376Z,19.15
2018-05-27T01:46:04.382Z,19.20
2018-05-27T01:47:04.335Z,19.15
2018-05-27T01:48:04.328Z,19.10
2018-05-27T01:49:04.306Z,18.99
2018-05-27T01:50:04.292Z,19.01
2018-05-27T01:51:04.246Z,18.99
2018-05-27T01:52:04.241Z,18.91
2018-05-27T01:53:04.214Z,18.90
2018-05-27T01:54:04.218Z,18.90
2018-05-27T01:55:04.178Z,18.94
2018-05-27T01:56:05.173Z,18.91
2018-05-27T01:57:04.138Z,18.93
2018-05-27T01:58:04.144Z,18.87
2018-05-27T01:59:04.082Z,19.01
2018-05-27T02:00:04.101Z,18.91
2018-05-27T02:01:04.066Z,18.90
2018-05-27T02:02:04.038Z,19.05
2018-05-27T02:03:04.020Z,18.91
2018-05-27T02:04:04.003Z,18.91
2018-05-27T02:05:03.988Z,18.89
2018-05-27T02:06:04.033Z,18.93
2018-05-27T02:07:03.960Z,18.94
2018-05-27T02:08:03.928Z,18.89
2018-05-27T02:09:03.892Z,18.83
2018-05-27T02:10:03.886Z,18.83
2018-05-27T02:11:03.860Z,18.86
2018-05-27T02:12:03.934Z,18.69
2018-05-27T02:13:03.817Z,18.79
2018-05-27T02:14:03.789Z,18.71
2018-05-27T02:15:03.770Z,18.71
2018-05-27T02:16:03.764Z,18.66
2018-05-27T02:17:03.728Z,18.68
2018-05-27T02:18:03.733Z,18.74
2018-05-27T02:19:03.696Z,18.66
2018-05-27T02:20:03.698Z,18.66
2018-05-27T02:21:03.653Z,18.72
2018-05-27T02:22:03.624Z,18.62
2018-05-27T02:23:03.600Z,18.68
2018-05-27T02:24:03.591Z,18.66
2018-05-27T02:25:03.577Z,18.60
2018-05-27T02:26:03.543Z,18.54
2018-05-27T02:27:03.523Z,18.59
2018-05-27T02:28:03.529Z,18.57
2018-05-27T02:29:03.472Z,18.53
2018-05-27T02:30:03.471Z,18.44
2018-05-27T02:31:03.450Z,18.51
2018-05-27T02:32:03.438Z,18.51
2018-05-27T02:33:03.411Z,18.49
2018-05-27T02:34:03.399Z,18.50
2018-05-27T02:35:03.455Z,18.49
2018-05-27T02:36:03.371Z,18.42
2018-05-27T02:37:03.319Z,18.44
2018-05-27T02:38:03.313Z,18.32
2018-05-27T02:39:03.305Z,18.38
2018-05-27T02:40:03.288Z,18.41
2018-05-27T02:41:03.339Z,18.31
2018-05-27T02:42:03.850Z,18.42
2018-05-27T02:43:03.208Z,18.32
2018-05-27T02:44:03.203Z,18.34
2018-05-27T02:45:03.171Z,18.29
2018-05-27T02:46:03.166Z,18.34
2018-05-27T02:47:03.118Z,18.41
2018-05-27T02:48:03.103Z,18.39
2018-05-27T02:49:03.076Z,18.34
2018-05-27T02:50:04.080Z,18.21
2018-05-27T02:51:03.041Z,18.19
2018-05-27T02:52:03.045Z,18.21
2018-05-27T02:53:03.004Z,18.25
2018-05-27T02:54:03.013Z,18.34
2018-05-27T02:55:02.966Z,18.23
2018-05-27T02:56:02.946Z,18.29
2018-05-27T02:57:02.933Z,18.19
2018-05-27T02:58:02.912Z,18.29
2018-05-27T02:59:02.864Z,18.20
2018-05-27T03:00:02.846Z,18.10
2018-05-27T03:01:02.841Z,18.11
2018-05-27T03:02:02.831Z,18.19
2018-05-27T03:03:02.788Z,18.13
2018-05-27T03:04:02.777Z,18.17
2018-05-27T03:05:02.748Z,18.14
2018-05-27T03:06:02.752Z,18.20
2018-05-27T03:07:02.701Z,18.16
2018-05-27T03:08:02.694Z,18.02
2018-05-27T03:09:02.667Z,18.07
2018-05-27T03:10:02.682Z,18.02
2018-05-27T03:11:02.629Z,18.01
2018-05-27T03:12:02.610Z,17.99
2018-05-27T03:13:02.599Z,18.04
2018-05-27T03:14:02.570Z,18.04
2018-05-27T03:15:02.531Z,18.04
2018-05-27T03:16:02.535Z,18.01
2018-05-27T03:17:02.516Z,17.99
2018-05-27T03:18:02.496Z,17.96
2018-05-27T03:19:02.463Z,17.94
2018-05-27T03:20:02.437Z,17.95
2018-05-27T03:21:02.423Z,17.94
2018-05-27T03:22:02.422Z,17.96
2018-05-27T03:23:02.372Z,17.91
2018-05-27T03:24:02.366Z,17.98
2018-05-27T03:25:02.339Z,17.77
2018-05-27T03:26:02.311Z,17.80
2018-05-27T03:27:02.300Z,17.79
2018-05-27T03:28:02.298Z,17.77
2018-05-27T03:29:02.248Z,17.70
2018-05-27T03:30:02.234Z,17.63
2018-05-27T03:31:02.211Z,17.70
2018-05-27T03:32:02.207Z,17.68
2018-05-27T03:33:02.193Z,17.74
2018-05-27T03:34:02.168Z,17.68
2018-05-27T03:35:02.138Z,17.62
2018-05-27T03:36:03.136Z,17.71
2018-05-27T03:37:02.107Z,17.68
2018-05-27T03:38:02.096Z,17.66
2018-05-27T03:39:02.077Z,17.71
2018-05-27T03:40:02.108Z,17.68
2018-05-27T03:41:02.016Z,17.68
2018-05-27T03:42:02.021Z,17.66
2018-05-27T03:43:01.985Z,17.77
2018-05-27T03:44:02.034Z,17.77
2018-05-27T03:45:01.920Z,17.79
2018-05-27T03:46:01.941Z,17.79
2018-05-27T03:47:01.878Z,17.68
2018-05-27T03:48:01.980Z,17.70
2018-05-27T03:49:01.848Z,17.71
2018-05-27T03:50:01.868Z,17.74
2018-05-27T03:51:01.824Z,17.65
2018-05-27T03:52:01.871Z,17.73
2018-05-27T03:53:01.769Z,17.71
2018-05-27T03:54:01.790Z,17.68
2018-05-27T03:55:01.736Z,17.68
2018-05-27T03:56:01.811Z,17.66
2018-05-27T03:57:01.678Z,17.73
2018-05-27T03:58:01.699Z,17.65
2018-05-27T03:59:01.646Z,17.70
2018-05-27T04:00:01.727Z,17.74
2018-05-27T04:01:01.597Z,17.71
2018-05-27T04:02:01.642Z,17.71
2018-05-27T04:03:01.571Z,17.68
2018-05-27T04:04:01.634Z,17.68
2018-05-27T04:05:01.515Z,17.70
2018-05-27T04:06:01.552Z,17.68
2018-05-27T04:07:01.494Z,17.71
2018-05-27T04:08:01.465Z,17.80
2018-05-27T04:09:01.438Z,17.83
2018-05-27T04:10:01.483Z,17.80
2018-05-27T04:11:01.388Z,17.80
2018-05-27T04:12:01.385Z,17.89
2018-05-27T04:13:01.365Z,17.91
2018-05-27T04:14:01.419Z,17.87
2018-05-27T04:15:01.300Z,17.94
2018-05-27T04:16:01.324Z,17.84
2018-05-27T04:17:01.282Z,17.98
2018-05-27T04:18:01.317Z,17.96
2018-05-27T04:19:01.217Z,17.95
2018-05-27T04:20:01.256Z,18.01
2018-05-27T04:21:01.203Z,17.92
2018-05-27T04:22:01.249Z,17.94
2018-05-27T04:23:01.135Z,17.95
2018-05-27T04:24:01.249Z,17.98
2018-05-27T04:25:01.117Z,17.99
2018-05-27T04:26:01.169Z,18.01
2018-05-27T04:27:01.068Z,17.98
2018-05-27T04:28:01.107Z,17.98
2018-05-27T04:29:01.023Z,17.98
2018-05-27T04:30:01.098Z,18.02
2018-05-27T04:31:00.982Z,18.09
2018-05-27T04:32:01.020Z,18.04
2018-05-27T04:33:00.950Z,18.17
2018-05-27T04:34:01.955Z,18.04
2018-05-27T04:35:00.890Z,18.13
2018-05-27T04:36:00.924Z,18.13
2018-05-27T04:37:00.854Z,18.19
2018-05-27T04:38:00.942Z,18.21
2018-05-27T04:39:00.815Z,18.19
2018-05-27T04:40:00.848Z,18.17
2018-05-27T04:41:00.773Z,18.20
2018-05-27T04:42:00.766Z,18.17
2018-05-27T04:43:00.717Z,18.21
2018-05-27T04:44:00.782Z,18.25
2018-05-27T04:45:00.696Z,18.32
2018-05-27T04:46:00.685Z,18.32
2018-05-27T04:47:00.643Z,18.28
2018-05-27T04:48:00.695Z,18.42
2018-05-27T04:49:00.594Z,18.42
2018-05-27T04:50:00.615Z,18.51
2018-05-27T04:51:00.558Z,18.51
2018-05-27T04:52:00.631Z,18.56
2018-05-27T04:53:00.516Z,18.56
2018-05-27T04:54:00.528Z,18.60
2018-05-27T04:55:00.463Z,18.69
2018-05-27T04:56:00.569Z,18.66
2018-05-27T04:57:00.427Z,18.71
2018-05-27T04:58:00.455Z,18.68
2018-05-27T04:59:00.411Z,18.78
2018-05-27T05:00:00.467Z,18.76
2018-05-27T05:01:00.350Z,18.78
2018-05-27T05:02:00.374Z,18.76
2018-05-27T05:03:00.295Z,18.91
2018-05-27T05:04:00.406Z,18.91
2018-05-27T05:05:00.266Z,18.96
2018-05-27T05:06:00.309Z,18.96
2018-05-27T05:07:00.238Z,19.20
2018-05-27T05:08:00.227Z,19.12
2018-05-27T05:09:00.170Z,19.16
2018-05-27T05:10:00.220Z,19.17
2018-05-27T05:11:00.160Z,19.25
2018-05-27T05:12:00.133Z,19.25
2018-05-27T05:13:00.111Z,19.17
2018-05-27T05:14:00.168Z,19.34
2018-05-27T05:15:00.134Z,19.39
2018-05-27T05:16:00.070Z,19.31
2018-05-27T05:17:00.011Z,19.46
2018-05-27T05:18:00.071Z,19.50
2018-05-27T05:18:59.968Z,19.55
2018-05-27T05:19:59.987Z,19.60
2018-05-27T05:20:59.924Z,19.62
2018-05-27T05:22:00.019Z,19.70
2018-05-27T05:22:59.893Z,19.67
2018-05-27T05:23:59.878Z,19.67
2018-05-27T05:24:59.836Z,19.70
2018-05-27T05:25:59.850Z,19.71
2018-05-27T05:26:59.815Z,19.68
2018-05-27T05:28:00.869Z,19.68
2018-05-27T05:28:59.771Z,19.67
2018-05-27T05:29:59.852Z,19.75
2018-05-27T05:30:59.718Z,19.67
2018-05-27T05:31:59.759Z,19.67
2018-05-27T05:32:59.665Z,19.60
2018-05-27T05:33:59.676Z,19.61
2018-05-27T05:34:59.631Z,19.61
2018-05-27T05:35:59.696Z,19.67
2018-05-27T05:36:59.585Z,19.67
2018-05-27T05:37:59.597Z,19.71
2018-05-27T05:38:59.545Z,19.71
2018-05-27T05:39:59.599Z,19.70
2018-05-27T05:40:59.510Z,19.72
2018-05-27T05:41:59.510Z,19.79
2018-05-27T05:42:59.499Z,19.71
2018-05-27T05:44:04.449Z,19.71
2018-05-27T05:44:59.432Z,19.76
2018-05-27T05:46:00.468Z,19.82
2018-05-27T05:46:59.392Z,19.78
2018-05-27T05:47:59.456Z,19.87
2018-05-27T05:48:59.345Z,19.89
2018-05-27T05:49:59.372Z,19.95
2018-05-27T05:50:59.296Z,20.05
2018-05-27T05:52:00.300Z,20.00
2018-05-27T05:52:59.256Z,20.00
2018-05-27T05:53:59.318Z,20.01
2018-05-27T05:54:59.213Z,20.07
2018-05-27T05:56:01.246Z,20.00
2018-05-27T05:56:59.175Z,20.07
2018-05-27T05:57:59.215Z,20.19
2018-05-27T05:58:59.125Z,20.19
2018-05-27T05:59:59.118Z,20.25
2018-05-27T06:00:59.086Z,20.34
2018-05-27T06:02:00.160Z,20.44
2018-05-27T06:02:59.064Z,20.48
2018-05-27T06:03:59.042Z,20.48
2018-05-27T06:04:59.006Z,20.44
2018-05-27T06:06:00.105Z,20.37
2018-05-27T06:06:58.989Z,20.48
2018-05-27T06:07:58.964Z,20.53
2018-05-27T06:08:58.924Z,20.51
2018-05-27T06:09:59.008Z,20.48
2018-05-27T06:10:58.878Z,20.64
2018-05-27T06:12:03.527Z,20.63
2018-05-27T06:12:58.834Z,20.61
2018-05-27T06:13:58.920Z,20.72
2018-05-27T06:14:58.799Z,20.75
2018-05-27T06:16:00.816Z,20.76
2018-05-27T06:16:58.771Z,20.79
2018-05-27T06:17:59.748Z,20.76
2018-05-27T06:18:58.712Z,20.79
2018-05-27T06:19:58.738Z,20.82
2018-05-27T06:20:58.701Z,20.87
2018-05-27T06:22:03.469Z,20.85
2018-05-27T06:22:58.632Z,20.88
2018-05-27T06:23:58.652Z,20.87
2018-05-27T06:24:58.568Z,20.88
2018-05-27T06:25:58.569Z,20.93
2018-05-27T06:26:58.563Z,20.96
2018-05-27T06:27:59.671Z,20.97
2018-05-27T06:28:58.495Z,21.01
2018-05-27T06:30:00.601Z,21.09
2018-05-27T06:30:58.504Z,21.00
2018-05-27T06:31:58.549Z,21.19
2018-05-27T06:32:58.434Z,21.22
2018-05-27T06:33:59.452Z,21.40
2018-05-27T06:34:58.380Z,21.46
2018-05-27T06:35:58.478Z,21.49
2018-05-27T06:36:58.349Z,21.63
2018-05-27T06:37:59.362Z,21.56
2018-05-27T06:38:58.287Z,21.63
2018-05-27T06:39:59.289Z,21.67
2018-05-27T06:40:58.248Z,21.79
2018-05-27T06:41:58.269Z,21.64
2018-05-27T06:42:58.219Z,21.55
2018-05-27T06:43:58.299Z,21.52
2018-05-27T06:44:58.159Z,21.49
2018-05-27T06:46:00.235Z,21.43
2018-05-27T06:46:58.104Z,21.46
2018-05-27T06:47:58.112Z,21.53
2018-05-27T06:48:58.098Z,21.52
2018-05-27T06:49:58.184Z,21.49
2018-05-27T06:50:58.042Z,21.46
2018-05-27T06:51:58.049Z,21.46
2018-05-27T06:52:57.987Z,21.46
2018-05-27T06:53:59.063Z,21.48
2018-05-27T06:54:57.932Z,21.61
2018-05-27T06:55:57.950Z,21.59
2018-05-27T06:56:57.963Z,21.56
2018-05-27T06:57:59.007Z,21.67
2018-05-27T06:58:57.863Z,21.64
2018-05-27T06:59:57.898Z,21.81
2018-05-27T07:00:57.820Z,21.77
2018-05-27T07:01:57.909Z,21.85
2018-05-27T07:02:57.793Z,21.89
2018-05-27T07:03:57.815Z,21.82
2018-05-27T07:04:57.762Z,21.82
2018-05-27T07:05:58.736Z,21.96
2018-05-27T07:06:57.700Z,22.02
2018-05-27T07:07:58.737Z,21.96
2018-05-27T07:08:57.672Z,21.96
2018-05-27T07:09:57.728Z,21.99
2018-05-27T07:10:57.595Z,22.09
2018-05-27T07:11:57.662Z,22.08
2018-05-27T07:12:57.630Z,22.12
2018-05-27T07:13:57.704Z,22.26
2018-05-27T07:14:57.524Z,22.24
2018-05-27T07:15:57.562Z,22.19
2018-05-27T07:16:57.459Z,22.24
2018-05-27T07:17:57.495Z,22.23
2018-05-27T07:18:57.453Z,22.35
2018-05-27T07:19:57.513Z,22.30
2018-05-27T07:20:57.396Z,22.36
2018-05-27T07:21:57.421Z,22.41
2018-05-27T07:22:57.440Z,22.44
2018-05-27T07:23:57.441Z,22.45
2018-05-27T07:24:57.342Z,22.48
2018-05-27T07:25:57.331Z,22.51
2018-05-27T07:26:57.284Z,22.52
2018-05-27T07:27:57.492Z,22.49
2018-05-27T07:28:57.218Z,22.56
2018-05-27T07:29:59.284Z,22.57
2018-05-27T07:30:57.178Z,22.57
2018-05-27T07:31:59.271Z,22.48
2018-05-27T07:32:57.168Z,22.49
2018-05-27T07:33:57.170Z,22.56
2018-05-27T07:34:57.108Z,22.56
2018-05-27T07:35:58.135Z,22.60
2018-05-27T07:36:57.063Z,22.57
2018-05-27T07:37:57.104Z,22.45
2018-05-27T07:38:57.026Z,22.49
2018-05-27T07:39:57.130Z,22.49
2018-05-27T07:40:56.972Z,22.49
2018-05-27T07:41:57.042Z,22.64
2018-05-27T07:42:56.947Z,22.64
2018-05-27T07:43:56.953Z,22.76
2018-05-27T07:44:56.896Z,22.82
2018-05-27T07:45:56.977Z,22.93
2018-05-27T07:46:56.837Z,22.86
2018-05-27T07:47:56.856Z,22.96
2018-05-27T07:48:56.821Z,23.03
2018-05-27T07:49:56.896Z,23.07
2018-05-27T07:50:56.765Z,23.14
2018-05-27T07:51:56.776Z,23.23
2018-05-27T07:52:56.719Z,23.26
2018-05-27T07:53:56.850Z,23.23
2018-05-27T07:54:56.678Z,23.23
2018-05-27T07:55:56.802Z,23.34
2018-05-27T07:56:56.642Z,23.19
2018-05-27T07:57:57.677Z,23.25
2018-05-27T07:58:56.586Z,23.16
2018-05-27T07:59:56.645Z,23.25
2018-05-27T08:00:56.555Z,23.35
2018-05-27T08:01:56.647Z,23.38
2018-05-27T08:02:56.497Z,23.42
2018-05-27T08:03:56.637Z,23.45
2018-05-27T08:04:56.475Z,23.49
2018-05-27T08:05:56.459Z,23.52
2018-05-27T08:06:56.430Z,23.60
2018-05-27T08:07:56.565Z,23.56
2018-05-27T08:08:56.374Z,23.56
2018-05-27T08:09:56.390Z,23.57
2018-05-27T08:10:56.342Z,23.59
2018-05-27T08:11:56.402Z,23.63
2018-05-27T08:12:56.325Z,23.71
2018-05-27T08:13:56.304Z,23.59
2018-05-27T08:14:56.322Z,23.57
2018-05-27T08:15:56.341Z,23.63
2018-05-27T08:16:56.210Z,23.69
2018-05-27T08:17:56.246Z,23.64
2018-05-27T08:18:56.159Z,23.67
2018-05-27T08:19:56.279Z,23.82
2018-05-27T08:20:56.117Z,23.86
2018-05-27T08:21:56.185Z,23.99
2018-05-27T08:22:56.096Z,24.00
2018-05-27T08:23:56.174Z,23.99
2018-05-27T08:24:56.041Z,24.00
2018-05-27T08:25:57.127Z,24.05
2018-05-27T08:26:55.984Z,24.05
2018-05-27T08:27:55.990Z,24.04
2018-05-27T08:28:55.945Z,24.24
2018-05-27T08:29:56.015Z,24.16
2018-05-27T08:30:55.914Z,24.18
2018-05-27T08:31:55.928Z,24.08
2018-05-27T08:32:55.888Z,24.29
2018-05-27T08:33:55.949Z,24.33
2018-05-27T08:34:55.848Z,24.49
2018-05-27T08:35:56.874Z,24.59
2018-05-27T08:36:55.778Z,24.71
2018-05-27T08:37:55.849Z,24.68
2018-05-27T08:38:55.748Z,24.67
2018-05-27T08:39:55.767Z,24.75
2018-05-27T08:40:55.752Z,24.80
2018-05-27T08:41:56.835Z,24.79
2018-05-27T08:42:55.681Z,24.86
2018-05-27T08:43:55.683Z,24.90
2018-05-27T08:44:55.622Z,24.94
2018-05-27T08:45:55.696Z,24.90
2018-05-27T08:46:55.586Z,25.07
2018-05-27T08:47:55.606Z,24.98
2018-05-27T08:48:55.547Z,24.98
2018-05-27T08:50:00.554Z,25.05
2018-05-27T08:50:55.485Z,25.12
2018-05-27T08:51:55.548Z,25.04
2018-05-27T08:52:55.461Z,24.93
2018-05-27T08:53:56.457Z,24.94
2018-05-27T08:54:55.400Z,25.05
2018-05-27T08:55:57.502Z,25.08
2018-05-27T08:56:55.376Z,25.22
2018-05-27T08:57:55.466Z,25.30
2018-05-27T08:58:55.337Z,25.26
2018-05-27T08:59:56.313Z,25.30
2018-05-27T09:00:55.294Z,25.27
2018-05-27T09:01:57.334Z,25.17
2018-05-27T09:02:55.279Z,25.31
2018-05-27T09:03:55.340Z,25.38
2018-05-27T09:04:55.229Z,25.23
2018-05-27T09:05:55.198Z,25.23
2018-05-27T09:06:55.169Z,25.36
2018-05-27T09:07:56.262Z,25.39
2018-05-27T09:08:55.159Z,25.48
2018-05-27T09:09:55.135Z,25.49
2018-05-27T09:10:55.113Z,25.56
2018-05-27T09:12:00.982Z,25.46
2018-05-27T09:12:55.050Z,25.45
2018-05-27T09:13:55.107Z,25.49
2018-05-27T09:14:55.014Z,25.54
2018-05-27T09:15:55.121Z,25.57
2018-05-27T09:16:54.973Z,25.48
2018-05-27T09:17:54.979Z,25.45
2018-05-27T09:18:54.941Z,25.48
2018-05-27T09:19:55.014Z,25.45
2018-05-27T09:20:54.914Z,25.57
2018-05-27T09:21:56.967Z,25.72
2018-05-27T09:22:54.851Z,25.83
2018-05-27T09:23:55.831Z,25.79
2018-05-27T09:24:54.864Z,25.82
2018-05-27T09:25:56.895Z,25.89
2018-05-27T09:26:54.825Z,25.79
2018-05-27T09:27:54.843Z,25.74
2018-05-27T09:28:54.709Z,25.59
2018-05-27T09:29:56.817Z,25.54
2018-05-27T09:30:54.729Z,25.72
2018-05-27T09:32:00.492Z,25.85
2018-05-27T09:32:54.633Z,25.82
2018-05-27T09:33:55.703Z,25.94
2018-05-27T09:34:54.600Z,26.03
2018-05-27T09:35:54.691Z,26.12
2018-05-27T09:36:54.567Z,26.16
2018-05-27T09:37:54.602Z,26.24
2018-05-27T09:38:54.528Z,26.23
2018-05-27T09:40:05.576Z,26.34
2018-05-27T09:40:54.482Z,26.27
2018-05-27T09:41:56.561Z,26.35
2018-05-27T09:42:54.442Z,26.13
2018-05-27T09:43:55.447Z,26.08
2018-05-27T09:44:54.404Z,26.23
2018-05-27T09:45:55.835Z,26.32
2018-05-27T09:46:54.403Z,26.46
2018-05-27T09:47:59.073Z,26.57
2018-05-27T09:48:54.315Z,26.61
2018-05-27T09:49:54.400Z,26.57
2018-05-27T09:50:54.293Z,26.73
2018-05-27T09:51:54.271Z,26.79
2018-05-27T09:52:54.271Z,26.90
2018-05-27T09:53:59.023Z,26.87
2018-05-27T09:54:54.188Z,26.79
2018-05-27T09:55:54.198Z,26.75
2018-05-27T09:56:54.167Z,26.79
2018-05-27T09:57:54.267Z,26.72
2018-05-27T09:58:54.147Z,26.64
2018-05-27T09:59:56.312Z,26.54
2018-05-27T10:00:54.114Z,26.68
2018-05-27T10:01:55.185Z,26.75
2018-05-27T10:02:54.056Z,26.90
2018-05-27T10:03:54.066Z,26.98
2018-05-27T10:04:53.997Z,27.27
2018-05-27T10:05:54.074Z,27.28
2018-05-27T10:06:53.988Z,27.33
2018-05-27T10:07:54.995Z,27.42
2018-05-27T10:08:53.935Z,27.59
2018-05-27T10:09:54.009Z,27.50
2018-05-27T10:10:53.906Z,27.40
2018-05-27T10:11:53.927Z,27.39
2018-05-27T10:12:53.896Z,27.33
2018-05-27T10:13:54.939Z,27.21
2018-05-27T10:14:53.790Z,27.21
2018-05-27T10:15:54.840Z,27.30
2018-05-27T10:16:53.791Z,27.53
2018-05-27T10:17:54.871Z,27.52
2018-05-27T10:18:53.785Z,27.68
2018-05-27T10:20:00.625Z,27.66
2018-05-27T10:20:53.683Z,27.66
2018-05-27T10:21:53.753Z,27.61
2018-05-27T10:22:53.691Z,27.43
2018-05-27T10:23:54.706Z,27.09
2018-05-27T10:24:53.612Z,27.02
2018-05-27T10:25:54.745Z,26.94
2018-05-27T10:26:53.585Z,27.02
2018-05-27T10:27:55.639Z,26.90
2018-05-27T10:28:53.529Z,26.93
2018-05-27T10:29:53.601Z,27.06
2018-05-27T10:30:53.563Z,27.02
2018-05-27T10:31:53.511Z,27.21
2018-05-27T10:32:53.502Z,27.08
2018-05-27T10:33:54.574Z,27.18
2018-05-27T10:34:53.419Z,27.24
2018-05-27T10:35:53.427Z,27.31
2018-05-27T10:36:53.375Z,27.42
2018-05-27T10:37:53.449Z,27.35
2018-05-27T10:38:53.347Z,27.31
2018-05-27T10:39:53.385Z,27.25
2018-05-27T10:40:53.300Z,27.27
2018-05-27T10:41:53.396Z,27.30
2018-05-27T10:42:53.275Z,27.24
2018-05-27T10:43:54.325Z,27.48
2018-05-27T10:44:53.221Z,27.55
2018-05-27T10:45:53.298Z,27.62
2018-05-27T10:46:53.180Z,27.76
2018-05-27T10:47:54.255Z,27.88
2018-05-27T10:48:53.149Z,28.01
2018-05-27T10:49:53.208Z,28.13
2018-05-27T10:50:53.106Z,28.17
2018-05-27T10:51:53.121Z,28.06
2018-05-27T10:52:53.079Z,27.61
2018-05-27T10:53:53.181Z,27.48
2018-05-27T10:54:53.040Z,27.59
2018-05-27T10:55:53.047Z,27.48
2018-05-27T10:56:53.000Z,27.59
2018-05-27T10:57:57.566Z,27.24
2018-05-27T10:58:52.974Z,27.05
2018-05-27T10:59:52.998Z,26.97
2018-05-27T11:00:52.910Z,26.86
2018-05-27T11:01:53.946Z,26.91
2018-05-27T11:02:52.887Z,26.98
2018-05-27T11:03:52.982Z,26.94
2018-05-27T11:04:52.843Z,27.16
2018-05-27T11:05:53.848Z,27.31
2018-05-27T11:06:52.804Z,27.49
2018-05-27T11:07:58.565Z,27.71
2018-05-27T11:08:52.813Z,27.93
2018-05-27T11:09:54.783Z,27.84
2018-05-27T11:10:52.719Z,28.13
2018-05-27T11:11:53.775Z,28.20
2018-05-27T11:12:52.674Z,28.33
2018-05-27T11:13:52.768Z,28.33
2018-05-27T11:14:52.684Z,28.23
2018-05-27T11:15:52.670Z,28.08
2018-05-27T11:16:52.600Z,28.06
2018-05-27T11:17:52.682Z,28.17
2018-05-27T11:18:52.601Z,28.08
2018-05-27T11:19:52.595Z,28.18
2018-05-27T11:20:52.543Z,28.14
2018-05-27T11:21:53.531Z,28.32
2018-05-27T11:22:52.486Z,28.45
2018-05-27T11:23:53.535Z,28.51
2018-05-27T11:24:52.466Z,28.62
2018-05-27T11:25:57.039Z,28.79
2018-05-27T11:26:52.413Z,28.94
2018-05-27T11:27:59.108Z,29.17
2018-05-27T11:28:52.486Z,29.29
2018-05-27T11:30:04.005Z,29.39
2018-05-27T11:30:52.336Z,29.69
2018-05-27T11:31:57.083Z,30.00
2018-05-27T11:32:52.320Z,30.21
2018-05-27T11:33:52.384Z,29.45
2018-05-27T11:34:52.305Z,29.11
2018-05-27T11:35:54.345Z,29.00
2018-05-27T11:36:52.328Z,29.17
2018-05-27T11:37:59.141Z,29.21
2018-05-27T11:38:52.244Z,29.32
2018-05-27T11:39:52.216Z,29.37
2018-05-27T11:40:52.168Z,29.44
2018-05-27T11:42:03.068Z,29.44
2018-05-27T11:42:52.116Z,29.69
2018-05-27T11:43:53.169Z,30.01
2018-05-27T11:44:52.085Z,30.10
2018-05-27T11:45:52.153Z,30.23
2018-05-27T11:46:52.037Z,30.42
2018-05-27T11:47:53.071Z,30.59
2018-05-27T11:48:51.997Z,30.79
2018-05-27T11:49:52.090Z,30.86
2018-05-27T11:50:51.983Z,30.59
2018-05-27T11:52:03.584Z,30.07
2018-05-27T11:52:51.958Z,29.85
2018-05-27T11:53:57.533Z,29.66
2018-05-27T11:54:51.894Z,29.66
2018-05-27T11:55:53.978Z,29.21
2018-05-27T11:56:51.855Z,28.94
2018-05-27T11:57:51.936Z,28.91
2018-05-27T11:58:51.834Z,28.77
2018-05-27T11:59:52.861Z,28.70
2018-05-27T12:00:51.794Z,28.80
2018-05-27T12:01:52.894Z,29.00
2018-05-27T12:02:51.731Z,29.29
2018-05-27T12:03:51.780Z,29.48
2018-05-27T12:04:51.724Z,29.84
2018-05-27T12:05:53.751Z,30.18
2018-05-27T12:06:51.662Z,30.49
2018-05-27T12:07:52.714Z,30.56
2018-05-27T12:08:51.617Z,30.67
2018-05-27T12:09:51.695Z,30.66
2018-05-27T12:10:51.607Z,30.21
2018-05-27T12:12:04.632Z,29.99
2018-05-27T12:12:51.557Z,29.79
2018-05-27T12:13:52.676Z,29.73
2018-05-27T12:14:51.516Z,29.84
2018-05-27T12:15:56.074Z,30.04
2018-05-27T12:16:51.460Z,30.30
2018-05-27T12:17:51.554Z,30.49
2018-05-27T12:18:51.424Z,30.60
2018-05-27T12:19:51.458Z,30.78
2018-05-27T12:20:51.424Z,30.78
2018-05-27T12:21:51.524Z,30.57
2018-05-27T12:22:51.371Z,30.34
2018-05-27T12:23:51.362Z,30.44
2018-05-27T12:24:51.325Z,30.30
2018-05-27T12:25:51.388Z,29.88
2018-05-27T12:26:51.296Z,29.71
2018-05-27T12:27:51.317Z,29.76
2018-05-27T12:28:51.261Z,29.69
2018-05-27T12:29:51.386Z,29.66
2018-05-27T12:30:51.205Z,29.62
2018-05-27T12:31:51.253Z,29.47
2018-05-27T12:32:51.186Z,29.39
2018-05-27T12:33:51.263Z,29.39
2018-05-27T12:34:51.134Z,29.42
2018-05-27T12:35:51.176Z,29.58
2018-05-27T12:36:51.113Z,29.57
2018-05-27T12:37:51.148Z,29.60
2018-05-27T12:38:51.052Z,29.66
2018-05-27T12:39:51.059Z,29.86
2018-05-27T12:40:51.024Z,29.97
2018-05-27T12:41:51.077Z,30.01
2018-05-27T12:42:51.066Z,29.89
2018-05-27T12:43:52.014Z,29.84
2018-05-27T12:44:50.949Z,29.67
2018-05-27T12:45:55.605Z,29.84
2018-05-27T12:46:50.912Z,29.70
2018-05-27T12:47:50.913Z,29.92
2018-05-27T12:48:50.879Z,29.99
2018-05-27T12:49:50.947Z,30.23
2018-05-27T12:50:50.878Z,30.26
2018-05-27T12:51:50.848Z,29.88